Time;durP1;ratioP1;P1;durP2;ratioP2;P2;SDS_P1;SDS_P2;PMS_P1;PMS_P2;Temp;Humidity;BMP_temperature;BMP_pressure;BME280_temperature;BME280_humidity;BME280_pressure;Samples;Min_cycle;Max_cycle;Signal;HPM_P1;HPM_P2
2022/01/08 00:00:01;;;;;;;29.27;10.10;;;-9.90;99.90;;;;;;5050217;28;20052;-80
2022/01/08 00:02:28;;;;;;;27.92;9.02;;;-9.90;99.90;;;;;;5047757;28;20053;-80
2022/01/08 00:04:58;;;;;;;32.75;12.65;;;-9.80;99.90;;;;;;5050283;28;20045;-81
2022/01/08 00:07:26;;;;;;;33.40;12.85;;;-9.80;99.90;;;;;;5052151;28;20056;-80
2022/01/08 00:09:53;;;;;;;35.45;13.80;;;-9.80;99.90;;;;;;5052971;28;20053;-80
2022/01/08 00:12:21;;;;;;;41.92;15.57;;;-9.70;99.90;;;;;;5051971;28;20131;-80
2022/01/08 00:14:48;;;;;;;44.67;15.32;;;-9.70;99.90;;;;;;5048742;28;20053;-79
2022/01/08 00:17:15;;;;;;;33.90;14.68;;;-9.70;99.90;;;;;;5078377;28;20049;-80
2022/01/08 00:19:44;;;;;;;34.05;13.18;;;-9.70;99.90;;;;;;5053038;28;20421;-80
2022/01/08 00:22:12;;;;;;;27.55;11.82;;;-9.70;99.90;;;;;;5052045;28;20137;-81
2022/01/08 00:24:40;;;;;;;33.58;11.73;;;-9.70;99.90;;;;;;5052319;28;20049;-80
2022/01/08 00:27:07;;;;;;;32.55;14.18;;;-9.70;99.90;;;;;;5051550;28;20052;-80
2022/01/08 00:29:35;;;;;;;32.55;13.85;;;-9.70;99.90;;;;;;5052592;28;20049;-79
2022/01/08 00:32:03;;;;;;;33.05;14.07;;;-9.60;99.90;;;;;;5051600;28;20057;-79
2022/01/08 00:34:30;;;;;;;32.75;14.50;;;-9.60;99.90;;;;;;5053697;28;20055;-80
2022/01/08 00:36:58;;;;;;;26.67;11.30;;;-9.60;99.90;;;;;;5052084;28;20559;-80
2022/01/08 00:39:26;;;;;;;17.00;7.53;;;-9.50;99.90;;;;;;5051672;28;20041;-80
2022/01/08 00:41:54;;;;;;;22.27;7.75;;;-9.50;99.90;;;;;;5053059;28;20467;-79
2022/01/08 00:44:22;;;;;;;18.02;7.03;;;-9.50;99.90;;;;;;5053602;28;20041;-79
2022/01/08 00:46:49;;;;;;;19.38;7.18;;;-9.40;99.90;;;;;;5052150;28;20114;-80
2022/01/08 00:49:17;;;;;;;14.27;6.10;;;-9.40;99.90;;;;;;5049746;28;20148;-79
2022/01/08 00:51:44;;;;;;;14.95;5.40;;;-9.30;99.90;;;;;;5085094;28;20049;-79
2022/01/08 00:54:12;;;;;;;13.13;5.10;;;-9.30;99.90;;;;;;5051495;28;20045;-80
2022/01/08 00:56:41;;;;;;;10.43;4.68;;;-9.20;99.90;;;;;;5051819;28;20055;-79
2022/01/08 00:59:08;;;;;;;14.40;5.45;;;-9.10;99.90;;;;;;5050256;28;20497;-79
2022/01/08 01:01:36;;;;;;;8.55;3.42;;;-9.10;99.90;;;;;;5051727;28;20076;-79
2022/01/08 01:04:03;;;;;;;7.15;3.78;;;-9.00;99.90;;;;;;5051615;28;20087;-79
2022/01/08 01:06:31;;;;;;;6.50;3.15;;;-9.00;99.90;;;;;;5051825;28;20061;-81
2022/01/08 01:08:58;;;;;;;8.93;3.58;;;-9.00;99.90;;;;;;5050297;28;20496;-81
2022/01/08 01:11:26;;;;;;;5.80;2.53;;;-9.00;99.90;;;;;;5052625;28;20533;-80
2022/01/08 01:13:55;;;;;;;6.65;2.45;;;-9.00;99.90;;;;;;5051904;28;20506;-80
2022/01/08 01:16:22;;;;;;;5.18;2.67;;;-9.00;99.90;;;;;;5050546;28;20095;-80
2022/01/08 01:18:49;;;;;;;5.70;2.63;;;-9.00;99.90;;;;;;5051605;28;20471;-81
2022/01/08 01:21:18;;;;;;;4.75;2.47;;;-9.00;99.90;;;;;;5047738;28;20057;-80
2022/01/08 01:23:46;;;;;;;6.32;2.55;;;-9.00;99.90;;;;;;5050365;28;20049;-81
2022/01/08 01:26:25;;;;;;;6.45;2.40;;;-9.00;99.90;;;;;;5049969;28;20049;-81
2022/01/08 01:29:29;;;;;;;4.40;2.80;;;-9.00;99.90;;;;;;5045728;28;20126;-82
2022/01/08 01:48:29;;;;;;;5.35;2.88;;;-8.90;99.90;;;;;;5052537;28;20118;-81
2022/01/08 01:50:57;;;;;;;4.47;2.00;;;-8.90;99.90;;;;;;5046374;28;20049;-81
2022/01/08 01:53:24;;;;;;;5.40;2.42;;;-8.90;99.90;;;;;;5039053;28;20249;-81
2022/01/08 01:55:51;;;;;;;3.15;2.35;;;-8.90;99.90;;;;;;5050236;28;20040;-81
2022/01/08 01:58:19;;;;;;;4.07;2.50;;;-8.90;99.90;;;;;;5051802;28;20053;-80
2022/01/08 02:00:51;;;;;;;6.65;2.65;;;-8.90;99.90;;;;;;5051176;28;20041;-81
2022/01/08 02:03:18;;;;;;;4.75;2.17;;;-8.90;99.90;;;;;;5048195;28;20040;-81
2022/01/08 02:05:46;;;;;;;4.30;3.03;;;-8.90;99.90;;;;;;5051877;28;20131;-81
2022/01/08 02:08:14;;;;;;;4.18;2.10;;;-8.90;99.90;;;;;;5049165;28;20102;-80
2022/01/08 02:10:41;;;;;;;5.15;2.15;;;-8.90;99.90;;;;;;5033179;28;20063;-80
2022/01/08 02:13:09;;;;;;;5.43;2.60;;;-8.80;99.90;;;;;;5049487;28;20581;-80
2022/01/08 02:15:37;;;;;;;5.50;2.55;;;-8.80;99.90;;;;;;5030351;28;20145;-80
2022/01/08 02:18:06;;;;;;;6.90;3.25;;;-8.80;99.90;;;;;;5043919;28;20187;-80
2022/01/08 02:20:35;;;;;;;4.28;2.15;;;-8.70;99.90;;;;;;5051346;28;20516;-80
2022/01/08 02:23:02;;;;;;;2.92;2.58;;;-8.70;99.90;;;;;;5047947;28;20143;-80
2022/01/08 02:25:31;;;;;;;5.15;2.55;;;-8.80;99.90;;;;;;5050910;28;20048;-80
2022/01/08 02:27:58;;;;;;;5.13;2.40;;;-8.80;99.90;;;;;;5050871;28;20050;-79
2022/01/08 02:30:26;;;;;;;3.63;2.85;;;-8.80;99.90;;;;;;5061563;28;20045;-79
2022/01/08 02:32:53;;;;;;;3.95;2.30;;;-8.80;99.90;;;;;;5051287;28;20053;-80
2022/01/08 02:35:22;;;;;;;5.60;2.50;;;-8.80;99.90;;;;;;5050800;28;20221;-79
2022/01/08 02:37:51;;;;;;;6.45;2.72;;;-8.80;99.90;;;;;;5051401;28;20049;-80
2022/01/08 02:40:20;;;;;;;7.88;2.90;;;-8.70;99.90;;;;;;5049351;28;20382;-80
2022/01/08 02:42:52;;;;;;;7.55;2.75;;;-8.70;99.90;;;;;;5047440;28;20098;-80
2022/01/08 02:45:22;;;;;;;5.07;2.33;;;-8.60;99.90;;;;;;5048066;28;20052;-79
2022/01/08 02:47:50;;;;;;;4.60;2.28;;;-8.60;99.90;;;;;;5050922;28;20506;-80
2022/01/08 02:50:18;;;;;;;3.38;2.08;;;-8.70;99.90;;;;;;5048123;28;20057;-80
2022/01/08 02:52:47;;;;;;;3.85;2.65;;;-8.70;99.90;;;;;;5050693;28;20048;-80
2022/01/08 02:55:19;;;;;;;3.22;2.92;;;-8.60;99.90;;;;;;5049623;28;20044;-79
2022/01/08 02:57:48;;;;;;;7.95;2.92;;;-8.60;99.90;;;;;;5050959;28;20049;-79
2022/01/08 03:00:19;;;;;;;6.95;2.42;;;-8.40;99.90;;;;;;5047752;28;20041;-79
2022/01/08 03:02:49;;;;;;;7.95;3.30;;;-8.40;99.90;;;;;;5049828;28;20044;-79
2022/01/08 03:05:18;;;;;;;9.02;3.42;;;-8.30;99.90;;;;;;5049276;28;20520;-79
2022/01/08 03:07:49;;;;;;;7.18;3.13;;;-8.30;99.90;;;;;;5048566;28;20076;-79
2022/01/08 03:10:19;;;;;;;10.68;3.42;;;-8.30;99.90;;;;;;5050620;28;20060;-80
2022/01/08 03:12:47;;;;;;;5.93;3.47;;;-8.20;99.90;;;;;;5049608;28;20064;-80
2022/01/08 03:15:18;;;;;;;7.03;3.53;;;-8.20;99.90;;;;;;5050407;28;20048;-80
2022/01/08 03:17:45;;;;;;;3.97;2.67;;;-8.10;99.90;;;;;;5048606;28;20078;-80
2022/01/08 03:20:14;;;;;;;11.10;3.75;;;-8.10;99.90;;;;;;5048207;28;20041;-80
2022/01/08 03:22:45;;;;;;;5.68;2.70;;;-8.10;99.90;;;;;;5049223;28;20073;-80
2022/01/08 03:25:14;;;;;;;3.47;2.45;;;-8.00;99.90;;;;;;5050365;28;20045;-81
2022/01/08 03:27:44;;;;;;;4.82;2.72;;;-8.10;99.90;;;;;;5048644;28;20493;-80
2022/01/08 03:30:16;;;;;;;5.45;3.30;;;-8.10;99.90;;;;;;5047671;28;20413;-80
2022/01/08 03:32:44;;;;;;;4.30;2.00;;;-8.00;99.90;;;;;;5081376;28;20056;-80
2022/01/08 03:35:11;;;;;;;9.98;2.67;;;-7.90;99.90;;;;;;5048309;28;20788;-80
2022/01/08 03:37:39;;;;;;;3.25;2.50;;;-7.90;99.90;;;;;;5050564;28;20099;-81
2022/01/08 03:40:08;;;;;;;8.20;3.08;;;-7.90;99.90;;;;;;5049317;28;20098;-81
2022/01/08 03:42:36;;;;;;;4.20;2.25;;;-7.90;99.90;;;;;;5053564;28;20564;-81
2022/01/08 03:45:06;;;;;;;4.00;2.47;;;-7.90;99.90;;;;;;5053420;28;20045;-80
2022/01/08 03:47:54;;;;;;;3.63;2.20;;;-7.90;99.90;;;;;;5053063;28;20048;-80
2022/01/08 03:50:22;;;;;;;3.72;2.55;;;-7.90;99.90;;;;;;5070154;28;20052;-81
2022/01/08 03:52:50;;;;;;;11.45;3.03;;;-7.90;99.90;;;;;;5054146;28;20056;-80
2022/01/08 03:55:17;;;;;;;7.28;3.67;;;-7.90;99.90;;;;;;5065113;28;20051;-80
2022/01/08 03:57:45;;;;;;;6.28;2.60;;;-7.90;99.90;;;;;;5045520;28;20049;-80
2022/01/08 04:00:16;;;;;;;4.45;2.85;;;-7.90;99.90;;;;;;5053076;28;20082;-80
2022/01/08 04:02:43;;;;;;;5.10;3.33;;;-7.90;99.90;;;;;;5053029;28;20052;-80
2022/01/08 04:05:11;;;;;;;8.05;2.97;;;-7.90;99.90;;;;;;5052766;28;20508;-80
2022/01/08 04:07:38;;;;;;;5.32;4.13;;;-7.80;99.90;;;;;;5053111;28;20515;-80
2022/01/08 04:10:07;;;;;;;6.45;2.60;;;-7.80;99.90;;;;;;5068694;28;20087;-80
2022/01/08 04:12:40;;;;;;;5.75;2.85;;;-7.70;99.90;;;;;;5052225;28;20394;-80
2022/01/08 04:15:30;;;;;;;5.05;2.90;;;-7.70;99.90;;;;;;5053087;28;20049;-80
2022/01/08 04:17:58;;;;;;;6.03;2.80;;;-7.70;99.90;;;;;;5024583;28;20148;-79
2022/01/08 04:20:25;;;;;;;5.40;3.05;;;-7.70;99.90;;;;;;5066725;28;20053;-80
2022/01/08 04:22:53;;;;;;;8.13;3.70;;;-7.60;99.90;;;;;;5051896;28;20041;-80
2022/01/08 04:25:23;;;;;;;7.53;3.22;;;-7.60;99.90;;;;;;5053476;28;20063;-80
2022/01/08 04:27:51;;;;;;;7.97;2.97;;;-7.60;99.90;;;;;;5049186;28;20081;-80
2022/01/08 04:30:19;;;;;;;7.65;3.42;;;-7.60;99.90;;;;;;5033932;28;20540;-79
2022/01/08 04:32:47;;;;;;;9.32;2.55;;;-7.60;99.90;;;;;;5049317;28;20048;-78
2022/01/08 04:35:16;;;;;;;6.22;2.70;;;-7.50;99.90;;;;;;5053331;28;20094;-79
2022/01/08 04:37:43;;;;;;;6.93;2.58;;;-7.60;99.90;;;;;;5051326;28;20052;-79
2022/01/08 04:40:11;;;;;;;8.02;2.88;;;-7.60;99.90;;;;;;5066538;28;20592;-79
2022/01/08 04:42:39;;;;;;;4.55;2.50;;;-7.60;99.90;;;;;;5052136;28;20103;-79
2022/01/08 04:45:07;;;;;;;5.05;2.03;;;-7.60;99.90;;;;;;5052637;28;20072;-79
2022/01/08 04:47:35;;;;;;;3.83;2.33;;;-7.70;99.90;;;;;;5053069;28;20049;-80
2022/01/08 04:50:02;;;;;;;4.72;2.67;;;-7.70;99.90;;;;;;5083970;28;20506;-79
2022/01/08 04:52:31;;;;;;;7.35;2.15;;;-7.80;99.90;;;;;;5046698;28;20049;-79
2022/01/08 04:54:58;;;;;;;4.80;2.65;;;-7.90;99.90;;;;;;5051897;28;20089;-78
2022/01/08 04:57:28;;;;;;;6.10;2.75;;;-8.00;99.90;;;;;;5053138;28;20041;-79
2022/01/08 04:59:56;;;;;;;5.63;2.53;;;-8.00;99.90;;;;;;5081440;28;20425;-80
2022/01/08 05:02:24;;;;;;;3.72;2.35;;;-8.10;99.90;;;;;;5051664;28;20581;-79
2022/01/08 05:04:52;;;;;;;8.52;3.13;;;-8.10;99.90;;;;;;5053603;28;20079;-79
2022/01/08 05:07:19;;;;;;;5.63;3.28;;;-8.20;99.90;;;;;;5052971;28;20051;-79
2022/01/08 05:09:48;;;;;;;5.93;2.65;;;-8.20;99.90;;;;;;5081539;28;20095;-80
2022/01/08 05:12:15;;;;;;;7.15;3.03;;;-8.20;99.90;;;;;;5052436;28;20123;-80
2022/01/08 05:14:44;;;;;;;4.35;2.67;;;-8.10;99.90;;;;;;5052168;28;20075;-80
2022/01/08 05:17:14;;;;;;;6.88;2.75;;;-8.10;99.90;;;;;;5065284;28;20502;-80
2022/01/08 05:19:46;;;;;;;9.68;3.55;;;-8.00;99.90;;;;;;5051638;28;20053;-80
2022/01/08 05:22:23;;;;;;;5.93;2.97;;;-8.10;99.90;;;;;;5050124;28;20052;-80
2022/01/08 05:24:52;;;;;;;8.88;3.60;;;-8.10;99.90;;;;;;5052405;28;20085;-80
2022/01/08 05:27:20;;;;;;;3.97;2.53;;;-8.10;99.90;;;;;;5049184;28;20081;-80
2022/01/08 05:29:51;;;;;;;7.28;3.58;;;-8.10;99.90;;;;;;5052979;28;20116;-80
2022/01/08 05:32:20;;;;;;;6.07;3.45;;;-8.10;99.90;;;;;;5051265;28;20056;-79
2022/01/08 05:34:50;;;;;;;6.32;2.90;;;-8.00;99.90;;;;;;5047380;28;20053;-80
2022/01/08 05:37:19;;;;;;;6.50;3.75;;;-8.00;99.90;;;;;;5046488;28;20090;-79
2022/01/08 05:39:48;;;;;;;6.05;3.22;;;-7.90;99.90;;;;;;5052395;28;20064;-79
2022/01/08 05:42:18;;;;;;;9.52;3.42;;;-7.80;99.90;;;;;;5047673;28;20045;-78
2022/01/08 05:44:46;;;;;;;6.72;2.88;;;-7.80;99.90;;;;;;5046442;28;20405;-78
2022/01/08 05:47:14;;;;;;;6.18;3.63;;;-7.70;99.90;;;;;;5050879;28;20049;-79
2022/01/08 05:49:41;;;;;;;4.20;2.58;;;-7.60;99.90;;;;;;5052377;28;20075;-80
2022/01/08 05:52:09;;;;;;;4.43;2.55;;;-7.50;99.90;;;;;;5050441;28;20044;-79
2022/01/08 05:54:37;;;;;;;5.97;2.83;;;-7.40;99.90;;;;;;5050019;28;20056;-79
2022/01/08 05:57:06;;;;;;;4.70;2.78;;;-7.30;99.90;;;;;;5052368;28;20044;-80
2022/01/08 05:59:38;;;;;;;7.82;3.40;;;-7.30;99.90;;;;;;5051410;28;20516;-79
2022/01/08 06:02:09;;;;;;;8.88;3.30;;;-7.20;99.90;;;;;;5051352;28;20053;-79
2022/01/08 06:04:52;;;;;;;8.85;4.05;;;-7.20;99.90;;;;;;5048284;28;20072;-80
2022/01/08 06:07:28;;;;;;;9.73;4.05;;;-7.20;99.90;;;;;;5083942;28;20139;-81
2022/01/08 06:09:58;;;;;;;8.35;4.38;;;-7.20;99.90;;;;;;5050755;28;20056;-78
2022/01/08 06:12:32;;;;;;;7.50;3.85;;;-7.20;99.90;;;;;;5066852;28;20045;-79
2022/01/08 06:15:06;;;;;;;12.00;4.43;;;-7.20;99.90;;;;;;5050302;28;20107;-80
2022/01/08 06:17:33;;;;;;;16.13;4.55;;;-7.20;99.90;;;;;;5085711;28;20049;-80
2022/01/08 06:20:01;;;;;;;11.35;4.88;;;-7.20;99.90;;;;;;5068043;28;20139;-84
2022/01/08 06:22:29;;;;;;;10.13;5.25;;;-7.20;99.90;;;;;;5048625;28;20517;-82
2022/01/08 06:24:56;;;;;;;13.73;5.97;;;-7.10;99.90;;;;;;5049306;28;20055;-82
2022/01/08 06:27:25;;;;;;;17.08;6.82;;;-7.10;99.90;;;;;;5050993;28;20552;-83
2022/01/08 06:29:52;;;;;;;19.08;8.57;;;-7.00;99.90;;;;;;5047716;28;20152;-80
2022/01/08 06:32:27;;;;;;;23.30;9.95;;;-6.90;99.90;;;;;;5047018;28;20095;-82
2022/01/08 06:34:58;;;;;;;25.10;10.52;;;-6.90;99.90;;;;;;5050387;28;20045;-81
2022/01/08 06:37:26;;;;;;;28.17;9.65;;;-6.80;99.90;;;;;;5048079;28;20514;-80
2022/01/08 06:39:57;;;;;;;22.10;7.90;;;-6.90;99.90;;;;;;5048694;28;20049;-86
2022/01/08 06:42:25;;;;;;;20.23;7.93;;;-6.90;99.90;;;;;;5045415;28;20107;-83
2022/01/08 06:44:52;;;;;;;23.42;9.13;;;-6.90;99.90;;;;;;5050151;28;20052;-82
2022/01/08 06:47:29;;;;;;;29.80;8.98;;;-6.90;99.90;;;;;;5081653;28;20084;-79
2022/01/08 06:50:01;;;;;;;24.75;8.77;;;-6.90;99.90;;;;;;5064537;28;20501;-81
2022/01/08 06:52:42;;;;;;;;;;;-6.90;99.90;;;;;;5051274;28;20094;-81
2022/01/08 06:55:20;;;;;;;34.22;9.43;;;-6.90;99.90;;;;;;5053402;28;20341;-85
2022/01/08 06:57:55;;;;;;;32.53;8.65;;;-6.80;99.90;;;;;;5067283;28;20048;-85
2022/01/08 07:00:24;;;;;;;21.45;9.45;;;-6.80;99.90;;;;;;5049174;28;20496;-85
2022/01/08 07:02:53;;;;;;;21.17;8.68;;;-6.80;99.90;;;;;;5067188;28;20520;-85
2022/01/08 07:05:26;;;;;;;21.92;9.70;;;-6.80;99.90;;;;;;5051882;28;20048;-88
2022/01/08 07:07:56;;;;;;;20.83;8.65;;;-6.80;99.90;;;;;;5049687;28;20402;-86
2022/01/08 07:10:24;;;;;;;22.33;8.60;;;-6.80;99.90;;;;;;5079994;28;20045;-85
2022/01/08 07:12:51;;;;;;;27.35;8.70;;;-6.80;99.90;;;;;;5066071;28;20052;-77
2022/01/08 07:15:19;;;;;;;23.55;9.35;;;-6.80;99.90;;;;;;5026578;28;20049;-76
2022/01/08 07:17:47;;;;;;;19.63;9.15;;;-6.80;99.90;;;;;;5047976;28;20501;-75
2022/01/08 07:20:16;;;;;;;21.23;8.95;;;-6.80;99.90;;;;;;5050230;28;20056;-79
2022/01/08 07:22:44;;;;;;;16.30;8.93;;;-6.80;99.90;;;;;;5048519;28;20460;-82
2022/01/08 07:25:12;;;;;;;18.85;9.25;;;-6.80;99.90;;;;;;5047354;28;20479;-79
2022/01/08 07:27:40;;;;;;;21.23;9.35;;;-6.90;99.90;;;;;;5044686;28;20103;-79
2022/01/08 07:30:09;;;;;;;24.73;10.18;;;-6.90;99.90;;;;;;5048159;28;20044;-78
2022/01/08 07:32:41;;;;;;;25.85;9.77;;;-7.00;99.90;;;;;;5047533;28;20075;-79
2022/01/08 07:35:11;;;;;;;27.27;10.90;;;-7.20;99.90;;;;;;5046891;28;20041;-79
2022/01/08 07:37:40;;;;;;;23.23;10.45;;;-7.20;99.90;;;;;;5024474;28;20045;-78
2022/01/08 07:40:09;;;;;;;35.53;12.55;;;-7.30;99.90;;;;;;5026455;28;20340;-79
2022/01/08 07:42:37;;;;;;;29.08;13.57;;;-7.30;99.90;;;;;;5034691;28;20052;-78
2022/01/08 07:45:06;;;;;;;26.13;12.35;;;-7.30;99.90;;;;;;5046515;28;20045;-78
2022/01/08 07:47:34;;;;;;;32.92;13.00;;;-7.30;99.90;;;;;;5043050;28;20433;-77
2022/01/08 07:50:02;;;;;;;30.95;11.88;;;-7.40;99.90;;;;;;5011823;28;20517;-77
2022/01/08 07:52:33;;;;;;;25.40;13.52;;;-7.40;99.90;;;;;;5042202;28;20053;-76
2022/01/08 07:55:03;;;;;;;29.67;12.73;;;-7.50;99.90;;;;;;5042983;28;20106;-82
2022/01/08 07:57:31;;;;;;;25.83;13.18;;;-7.50;99.90;;;;;;5049292;28;20045;-80
2022/01/08 07:59:58;;;;;;;30.05;13.88;;;-7.50;99.90;;;;;;5049845;28;20063;-79
2022/01/08 08:02:26;;;;;;;21.05;11.20;;;-7.60;99.90;;;;;;5047791;28;20099;-79
2022/01/08 08:04:54;;;;;;;24.77;11.35;;;-7.60;99.90;;;;;;5047300;28;20061;-90
2022/01/08 08:07:36;;;;;;;24.10;11.27;;;-7.60;99.90;;;;;;5050410;28;20036;-80
2022/01/08 08:10:10;;;;;;;30.33;12.73;;;-7.60;99.90;;;;;;5031770;28;20561;-80
2022/01/08 08:12:37;;;;;;;26.45;12.27;;;-7.50;99.90;;;;;;5045942;28;20052;-81
2022/01/08 08:15:07;;;;;;;25.08;12.43;;;-7.50;99.90;;;;;;5045614;28;20040;-81
2022/01/08 08:17:35;;;;;;;28.60;12.45;;;-7.40;99.90;;;;;;5047494;28;20057;-80
2022/01/08 08:20:07;;;;;;;25.52;11.82;;;-7.40;99.90;;;;;;5044401;28;20136;-80
2022/01/08 08:22:34;;;;;;;20.13;11.23;;;-7.30;99.90;;;;;;5047768;28;20110;-82
2022/01/08 08:25:02;;;;;;;33.20;12.90;;;-7.20;99.90;;;;;;5043803;28;20041;-80
2022/01/08 08:27:32;;;;;;;34.17;14.00;;;-7.20;99.90;;;;;;5045543;28;20053;-83
2022/01/08 08:30:02;;;;;;;29.58;12.32;;;-7.20;99.90;;;;;;5052246;28;20127;-87
2022/01/08 08:32:30;;;;;;;37.70;15.07;;;-7.20;99.90;;;;;;5067784;28;20523;-82
2022/01/08 08:34:58;;;;;;;29.48;12.85;;;-7.20;99.90;;;;;;5058985;28;20041;-85
2022/01/08 08:37:26;;;;;;;31.33;12.98;;;-7.20;99.90;;;;;;5046798;28;20100;-84
2022/01/08 08:39:53;;;;;;;32.70;12.20;;;-7.30;99.90;;;;;;5042316;28;20056;-79
2022/01/08 08:42:20;;;;;;;33.88;13.20;;;-7.40;99.90;;;;;;5049404;28;20041;-81
2022/01/08 08:44:49;;;;;;;31.15;15.23;;;-7.40;99.90;;;;;;5075156;28;20055;-84
2022/01/08 08:47:17;;;;;;;24.77;12.32;;;-7.30;99.90;;;;;;5066946;28;20043;-82
2022/01/08 08:49:44;;;;;;;29.92;13.65;;;-7.30;99.90;;;;;;5050227;28;20041;-83
2022/01/08 08:52:12;;;;;;;25.00;12.55;;;-7.30;99.90;;;;;;5053368;28;20049;-82
2022/01/08 08:54:41;;;;;;;26.80;12.45;;;-7.30;99.90;;;;;;5053117;28;20049;-81
2022/01/08 08:57:11;;;;;;;30.33;12.23;;;-7.30;99.90;;;;;;5050343;28;20048;-80
2022/01/08 08:59:38;;;;;;;25.92;11.90;;;-7.30;99.90;;;;;;5045294;28;20037;-81
2022/01/08 09:02:08;;;;;;;34.35;12.63;;;-7.20;99.90;;;;;;5075368;28;20067;-83
2022/01/08 09:04:40;;;;;;;29.67;12.35;;;-7.20;99.90;;;;;;5051793;28;20065;-82
2022/01/08 09:07:07;;;;;;;28.52;12.40;;;-7.20;99.90;;;;;;5048273;28;20084;-82
2022/01/08 09:09:35;;;;;;;34.13;12.65;;;-7.20;99.90;;;;;;5046209;28;20044;-81
2022/01/08 09:12:03;;;;;;;33.58;13.45;;;-7.20;99.90;;;;;;5050088;28;20039;-81
2022/01/08 09:14:31;;;;;;;27.30;12.57;;;-7.20;99.90;;;;;;5052544;28;20131;-81
2022/01/08 09:17:04;;;;;;;25.67;12.85;;;-7.10;99.90;;;;;;5052122;28;20528;-80
2022/01/08 09:19:34;;;;;;;36.08;14.48;;;-7.00;99.90;;;;;;5046369;28;20455;-82
2022/01/08 09:22:14;;;;;;;36.97;13.70;;;-7.00;99.90;;;;;;5052546;28;20049;-80
2022/01/08 09:25:03;;;;;;;36.40;15.40;;;-7.10;99.90;;;;;;5052358;28;20055;-82
2022/01/08 09:27:45;;;;;;;40.28;15.15;;;-7.10;99.90;;;;;;5042567;28;20046;-81
2022/01/08 09:30:13;;;;;;;32.58;14.23;;;-7.10;99.90;;;;;;5049115;28;20045;-80
2022/01/08 09:32:54;;;;;;;31.45;14.88;;;-7.10;99.90;;;;;;5051198;28;20482;-83
2022/01/08 09:35:26;;;;;;;;;;;-7.00;99.90;;;;;;5063494;28;20053;-82
2022/01/08 09:37:54;;;;;;;;;;;-6.90;99.90;;;;;;5047826;28;19939;-86
2022/01/08 09:40:25;;;;;;;;;;;-6.80;99.90;;;;;;5046906;28;19972;-86
2022/01/08 09:42:52;;;;;;;;;;;-6.60;99.90;;;;;;5045327;28;19925;-87
2022/01/08 09:45:26;;;;;;;;;;;-6.30;99.90;;;;;;5053397;28;19925;-89
2022/01/08 09:47:53;;;;;;;;;;;-6.00;99.90;;;;;;5067252;28;19935;-89
2022/01/08 09:50:20;;;;;;;;;;;-5.70;99.90;;;;;;5045263;28;19931;-82
2022/01/08 09:52:53;;;;;;;;;;;-5.50;99.90;;;;;;5049002;28;19932;-83
2022/01/08 09:57:50;;;;;;;36.53;15.95;;;-5.30;99.90;;;;;;5086660;27;1748448;-80
2022/01/08 10:00:19;;;;;;;31.88;15.52;;;-5.50;99.90;;;;;;5102714;28;20069;-84
2022/01/08 10:02:47;;;;;;;34.85;16.70;;;-5.50;99.90;;;;;;5088034;28;20048;-81
2022/01/08 10:05:17;;;;;;;35.70;16.45;;;-5.60;99.90;;;;;;5069281;28;20048;-81
2022/01/08 10:07:59;;;;;;;37.85;17.13;;;-5.80;99.90;;;;;;5086540;28;20044;-80
2022/01/08 10:10:28;;;;;;;39.17;18.30;;;-6.10;99.90;;;;;;5068888;28;20044;-82
2022/01/08 10:13:01;;;;;;;41.05;17.25;;;-6.40;99.90;;;;;;5087351;28;20565;-80
2022/01/08 10:18:25;;;;;;;40.40;17.63;;;-6.80;99.90;;;;;;5069206;28;20045;-81
2022/01/08 10:20:55;;;;;;;36.95;16.45;;;-6.80;99.90;;;;;;5087234;28;20079;-83
2022/01/08 10:23:24;;;;;;;39.08;17.52;;;-6.70;99.90;;;;;;5068468;28;20147;-85
2022/01/08 10:26:01;;;;;;;34.38;16.77;;;-6.70;99.90;;;;;;5066955;28;20041;-85
2022/01/08 10:28:40;;;;;;;31.95;16.17;;;-6.50;99.90;;;;;;5023451;28;20053;-86
2022/01/08 10:31:15;;;;;;;36.08;17.77;;;-6.30;99.90;;;;;;5020305;28;20152;-85
2022/01/08 10:33:48;;;;;;;32.08;16.60;;;-6.20;99.90;;;;;;5021103;28;20060;-82
2022/01/08 10:36:23;;;;;;;35.97;17.60;;;-5.90;99.90;;;;;;5013601;28;20462;-86
2022/01/08 10:38:53;;;;;;;38.90;17.85;;;-5.80;99.90;;;;;;5027590;28;20131;-82
2022/01/08 10:41:21;;;;;;;37.10;17.15;;;-5.90;99.90;;;;;;5021598;28;20406;-83
2022/01/08 10:44:06;;;;;;;37.72;18.80;;;-6.00;99.90;;;;;;5038846;28;20170;-81
2022/01/08 10:46:35;;;;;;;39.90;20.35;;;-6.20;99.90;;;;;;5004085;28;20045;-83
2022/01/08 10:49:04;;;;;;;41.03;18.35;;;-6.40;99.90;;;;;;5022932;28;20105;-83
2022/01/08 10:51:37;;;;;;;35.13;15.57;;;-6.40;99.90;;;;;;4998616;28;20050;-83
2022/01/08 10:54:13;;;;;;;33.28;16.85;;;-6.30;99.90;;;;;;5022114;28;20069;-82
2022/01/08 10:56:51;;;;;;;34.20;16.58;;;-6.20;99.90;;;;;;5023745;28;20515;-82
2022/01/08 10:59:24;;;;;;;38.70;17.35;;;-6.20;99.90;;;;;;5009653;28;20058;-83
2022/01/08 11:01:58;;;;;;;34.53;16.27;;;-6.30;99.90;;;;;;5009420;28;20045;-87
2022/01/08 11:04:49;;;;;;;31.77;15.57;;;-6.60;99.90;;;;;;5007704;28;20498;-84
2022/01/08 11:07:20;;;;;;;39.33;17.50;;;-7.00;99.90;;;;;;4987669;28;20111;-86
2022/01/08 11:09:51;;;;;;;37.22;16.10;;;-7.20;99.90;;;;;;4995535;28;20099;-87
2022/01/08 11:12:24;;;;;;;35.35;16.98;;;-7.40;99.90;;;;;;5023950;28;20070;-86
2022/01/08 11:17:34;;;;;;;33.55;16.80;;;-7.70;99.90;;;;;;4988880;28;20108;-84
2022/01/08 11:20:07;;;;;;;38.45;16.63;;;-7.80;99.90;;;;;;5010736;28;20050;-85
2022/01/08 11:22:38;;;;;;;42.50;17.67;;;-7.80;99.90;;;;;;5003468;28;20097;-84
2022/01/08 11:25:09;;;;;;;34.70;14.25;;;-7.80;99.90;;;;;;5010265;28;20050;-83
2022/01/08 11:27:48;;;;;;;32.17;15.95;;;-8.00;99.90;;;;;;4981414;28;20053;-83
2022/01/08 11:30:21;;;;;;;34.38;15.23;;;-8.10;99.90;;;;;;5026433;28;20045;-86
2022/01/08 11:32:50;;;;;;;29.08;15.88;;;-8.20;99.90;;;;;;5005441;28;20061;-86
2022/01/08 11:35:18;;;;;;;47.22;18.08;;;-8.30;99.90;;;;;;5011732;28;20080;-85
2022/01/08 11:37:48;;;;;;;33.75;15.52;;;-8.30;99.90;;;;;;5011626;28;20061;-87
2022/01/08 11:40:18;;;;;;;32.75;15.23;;;-8.30;99.90;;;;;;5011324;28;20048;-81
2022/01/08 11:42:47;;;;;;;38.08;15.10;;;-8.30;99.90;;;;;;4998290;28;20142;-84
2022/01/08 11:45:20;;;;;;;33.38;15.00;;;-8.30;99.90;;;;;;4975820;28;20045;-87
2022/01/08 11:47:53;;;;;;;31.90;15.77;;;-8.30;99.90;;;;;;5011756;28;20063;-86
2022/01/08 11:50:25;;;;;;;32.28;14.68;;;-8.40;99.90;;;;;;4972037;28;20046;-85
2022/01/08 11:53:20;;;;;;;40.92;15.55;;;-8.50;99.90;;;;;;5011879;28;20064;-88
2022/01/08 11:55:50;;;;;;;36.17;16.40;;;-8.50;99.90;;;;;;4991942;28;20058;-86
2022/01/08 11:58:22;;;;;;;33.13;13.88;;;-8.40;99.90;;;;;;5009872;28;20064;-86
2022/01/08 12:00:56;;;;;;;30.50;13.70;;;-8.40;99.90;;;;;;4994418;28;20052;-86
2022/01/08 12:03:31;;;;;;;36.60;15.60;;;-8.40;99.90;;;;;;5010272;28;20085;-83
2022/01/08 12:06:00;;;;;;;30.75;14.98;;;-8.30;99.90;;;;;;4993212;28;20081;-85
2022/01/08 12:08:57;;;;;;;30.83;15.30;;;-8.30;99.90;;;;;;5009478;28;20041;-87
2022/01/08 12:11:26;;;;;;;30.50;14.38;;;-8.20;99.90;;;;;;4986066;28;20052;-87
2022/01/08 12:13:53;;;;;;;33.58;13.57;;;-8.30;99.90;;;;;;5012527;28;20526;-86
2022/01/08 12:16:39;;;;;;;33.90;14.73;;;-8.30;99.90;;;;;;5006561;28;20081;-84
2022/01/08 12:19:09;;;;;;;34.22;15.43;;;-8.30;99.90;;;;;;4983264;28;20053;-85
2022/01/08 12:21:40;;;;;;;34.95;17.40;;;-8.30;99.90;;;;;;4981843;28;20594;-87
2022/01/08 12:24:36;;;;;;;31.10;15.23;;;-8.30;99.90;;;;;;5011232;28;20418;-84
2022/01/08 12:27:22;;;;;;;36.63;16.30;;;-8.40;99.90;;;;;;5009114;28;20076;-85
2022/01/08 12:29:51;;;;;;;34.33;15.43;;;-8.50;99.90;;;;;;4991576;28;20531;-82
2022/01/08 12:32:35;;;;;;;36.65;13.98;;;-8.50;99.90;;;;;;4992447;28;20049;-84
2022/01/08 12:35:35;;;;;;;31.90;14.75;;;-8.60;99.90;;;;;;4995891;28;20041;-82
2022/01/08 12:38:23;;;;;;;29.67;14.25;;;-8.70;99.90;;;;;;5010085;28;20152;-86
2022/01/08 12:40:51;;;;;;;37.50;14.25;;;-8.70;99.90;;;;;;4993889;28;20165;-87
2022/01/08 12:43:29;;;;;;;35.05;13.93;;;-8.70;99.90;;;;;;4994097;28;20101;-85
2022/01/08 12:46:18;;;;;;;31.50;15.27;;;-8.80;99.90;;;;;;4986488;28;20613;-85
2022/01/08 12:49:14;;;;;;;33.13;13.27;;;-8.80;99.90;;;;;;5009823;28;20123;-84
2022/01/08 12:52:09;;;;;;;31.40;14.80;;;-8.90;99.90;;;;;;4981967;28;20061;-83
2022/01/08 12:54:37;;;;;;;29.48;13.35;;;-8.90;99.90;;;;;;5005597;28;20077;-84
2022/01/08 12:57:06;;;;;;;38.05;15.18;;;-9.00;99.90;;;;;;5009725;28;20042;-83
2022/01/08 12:59:38;;;;;;;30.83;14.48;;;-9.10;99.90;;;;;;4985507;28;20046;-83
2022/01/08 13:02:11;;;;;;;30.10;13.65;;;-9.20;99.90;;;;;;4998526;28;20056;-84
2022/01/08 13:04:41;;;;;;;33.88;15.80;;;-9.30;99.90;;;;;;4991249;28;20050;-85
2022/01/08 13:07:08;;;;;;;30.80;15.13;;;-9.30;99.90;;;;;;5009746;28;20049;-88
2022/01/08 13:09:36;;;;;;;31.67;14.43;;;-9.30;99.90;;;;;;5006775;28;20054;-86
2022/01/08 13:12:04;;;;;;;26.70;12.75;;;-9.30;99.90;;;;;;5007840;28;20451;-88
2022/01/08 13:14:33;;;;;;;37.83;15.60;;;-9.40;99.90;;;;;;5008175;28;20131;-87
2022/01/08 13:17:01;;;;;;;29.92;13.95;;;-9.40;99.90;;;;;;5010055;28;20082;-86
2022/01/08 13:19:32;;;;;;;32.65;13.93;;;-9.40;99.90;;;;;;5009913;28;20054;-85